sensor_id;sensor_type;location;lat;lon;timestamp;P1;durP1;ratioP1;P2;durP2;ratioP2
68089;SDS011;54880;50.986;6.990;2022-12-16T00:01:49;59.10;;;21.40;;
68089;SDS011;54880;50.986;6.990;2022-12-16T00:04:14;54.00;;;20.97;;
68089;SDS011;54880;50.986;6.990;2022-12-16T00:06:41;58.72;;;22.30;;
68089;SDS011;54880;50.986;6.990;2022-12-16T00:09:07;56.00;;;22.97;;
68089;SDS011;54880;50.986;6.990;2022-12-16T00:11:32;58.40;;;22.87;;
68089;SDS011;54880;50.986;6.990;2022-12-16T00:13:57;54.60;;;22.43;;
68089;SDS011;54880;50.986;6.990;2022-12-16T00:16:23;49.37;;;22.37;;
68089;SDS011;54880;50.986;6.990;2022-12-16T00:18:48;56.60;;;22.93;;
68089;SDS011;54880;50.986;6.990;2022-12-16T00:21:13;52.67;;;21.07;;
68089;SDS011;54880;50.986;6.990;2022-12-16T00:23:39;55.50;;;21.57;;
68089;SDS011;54880;50.986;6.990;2022-12-16T00:26:06;57.35;;;22.75;;
68089;SDS011;54880;50.986;6.990;2022-12-16T00:28:31;55.43;;;22.50;;
68089;SDS011;54880;50.986;6.990;2022-12-16T00:30:56;49.90;;;20.93;;
68089;SDS011;54880;50.986;6.990;2022-12-16T00:33:22;53.20;;;22.13;;
68089;SDS011;54880;50.986;6.990;2022-12-16T00:35:48;61.03;;;20.40;;
68089;SDS011;54880;50.986;6.990;2022-12-16T00:38:13;53.43;;;20.90;;
68089;SDS011;54880;50.986;6.990;2022-12-16T00:40:39;52.88;;;21.23;;
68089;SDS011;54880;50.986;6.990;2022-12-16T00:43:04;52.17;;;19.97;;
68089;SDS011;54880;50.986;6.990;2022-12-16T00:45:30;52.17;;;21.57;;
68089;SDS011;54880;50.986;6.990;2022-12-16T00:47:55;56.13;;;21.93;;
68089;SDS011;54880;50.986;6.990;2022-12-16T00:50:20;49.03;;;20.57;;
68089;SDS011;54880;50.986;6.990;2022-12-16T00:52:46;52.00;;;21.60;;
68089;SDS011;54880;50.986;6.990;2022-12-16T00:55:11;52.30;;;21.57;;
68089;SDS011;54880;50.986;6.990;2022-12-16T00:57:36;49.08;;;20.00;;
68089;SDS011;54880;50.986;6.990;2022-12-16T01:00:02;50.45;;;19.75;;
68089;SDS011;54880;50.986;6.990;2022-12-16T01:02:29;46.93;;;20.23;;
68089;SDS011;54880;50.986;6.990;2022-12-16T01:04:54;52.40;;;20.25;;
68089;SDS011;54880;50.986;6.990;2022-12-16T01:07:20;52.07;;;19.73;;
68089;SDS011;54880;50.986;6.990;2022-12-16T01:09:45;48.90;;;19.90;;
68089;SDS011;54880;50.986;6.990;2022-12-16T01:12:10;47.00;;;19.03;;
68089;SDS011;54880;50.986;6.990;2022-12-16T01:14:35;50.97;;;20.23;;
68089;SDS011;54880;50.986;6.990;2022-12-16T01:17:01;50.50;;;19.43;;
68089;SDS011;54880;50.986;6.990;2022-12-16T01:19:26;49.53;;;21.00;;
68089;SDS011;54880;50.986;6.990;2022-12-16T01:21:51;46.67;;;20.07;;
68089;SDS011;54880;50.986;6.990;2022-12-16T01:24:16;49.43;;;20.27;;
68089;SDS011;54880;50.986;6.990;2022-12-16T01:26:41;51.03;;;19.93;;
68089;SDS011;54880;50.986;6.990;2022-12-16T01:29:07;45.00;;;19.30;;
68089;SDS011;54880;50.986;6.990;2022-12-16T01:31:32;49.80;;;19.38;;
68089;SDS011;54880;50.986;6.990;2022-12-16T01:33:57;48.70;;;18.70;;
68089;SDS011;54880;50.986;6.990;2022-12-16T01:36:22;47.33;;;19.33;;
68089;SDS011;54880;50.986;6.990;2022-12-16T01:38:48;50.90;;;18.53;;
68089;SDS011;54880;50.986;6.990;2022-12-16T01:41:14;49.97;;;20.37;;
68089;SDS011;54880;50.986;6.990;2022-12-16T01:43:40;50.45;;;18.52;;
68089;SDS011;54880;50.986;6.990;2022-12-16T01:46:23;48.30;;;19.00;;
68089;SDS011;54880;50.986;6.990;2022-12-16T01:49:03;46.08;;;18.42;;
68089;SDS011;54880;50.986;6.990;2022-12-16T01:51:33;51.58;;;19.70;;
68089;SDS011;54880;50.986;6.990;2022-12-16T01:54:18;47.90;;;19.90;;
68089;SDS011;54880;50.986;6.990;2022-12-16T01:56:45;44.80;;;17.20;;
68089;SDS011;54880;50.986;6.990;2022-12-16T01:59:12;50.03;;;21.08;;
68089;SDS011;54880;50.986;6.990;2022-12-16T02:01:40;52.55;;;20.50;;
68089;SDS011;54880;50.986;6.990;2022-12-16T02:04:05;50.17;;;18.77;;
68089;SDS011;54880;50.986;6.990;2022-12-16T02:06:30;45.50;;;18.27;;
68089;SDS011;54880;50.986;6.990;2022-12-16T02:08:56;49.40;;;19.67;;
68089;SDS011;54880;50.986;6.990;2022-12-16T02:21:47;46.13;;;18.30;;
68089;SDS011;54880;50.986;6.990;2022-12-16T02:24:25;42.97;;;18.42;;
68089;SDS011;54880;50.986;6.990;2022-12-16T02:32:20;47.53;;;19.23;;
68089;SDS011;54880;50.986;6.990;2022-12-16T02:34:58;48.50;;;19.33;;
68089;SDS011;54880;50.986;6.990;2022-12-16T02:39:58;43.50;;;18.85;;
68089;SDS011;54880;50.986;6.990;2022-12-16T02:42:31;42.03;;;17.75;;
68089;SDS011;54880;50.986;6.990;2022-12-16T02:44:59;48.13;;;18.15;;
68089;SDS011;54880;50.986;6.990;2022-12-16T02:47:25;51.25;;;19.33;;
68089;SDS011;54880;50.986;6.990;2022-12-16T02:49:51;48.00;;;20.50;;
68089;SDS011;54880;50.986;6.990;2022-12-16T02:52:19;50.40;;;19.98;;
68089;SDS011;54880;50.986;6.990;2022-12-16T02:54:45;46.20;;;17.88;;
68089;SDS011;54880;50.986;6.990;2022-12-16T03:02:28;50.17;;;20.50;;
68089;SDS011;54880;50.986;6.990;2022-12-16T03:07:35;44.33;;;17.85;;
68089;SDS011;54880;50.986;6.990;2022-12-16T03:10:05;45.50;;;19.88;;
68089;SDS011;54880;50.986;6.990;2022-12-16T03:12:32;42.00;;;19.00;;
68089;SDS011;54880;50.986;6.990;2022-12-16T03:14:58;47.15;;;18.77;;
68089;SDS011;54880;50.986;6.990;2022-12-16T03:17:23;47.83;;;18.88;;
68089;SDS011;54880;50.986;6.990;2022-12-16T03:20:11;42.20;;;16.83;;
68089;SDS011;54880;50.986;6.990;2022-12-16T03:22:35;47.60;;;17.83;;
68089;SDS011;54880;50.986;6.990;2022-12-16T03:25:02;44.67;;;18.65;;
68089;SDS011;54880;50.986;6.990;2022-12-16T03:27:33;42.50;;;17.00;;
68089;SDS011;54880;50.986;6.990;2022-12-16T03:30:03;50.13;;;18.30;;
68089;SDS011;54880;50.986;6.990;2022-12-16T03:35:12;41.75;;;15.82;;
68089;SDS011;54880;50.986;6.990;2022-12-16T03:37:38;41.90;;;16.57;;
68089;SDS011;54880;50.986;6.990;2022-12-16T03:40:04;49.53;;;18.67;;
68089;SDS011;54880;50.986;6.990;2022-12-16T03:42:31;41.10;;;17.75;;
68089;SDS011;54880;50.986;6.990;2022-12-16T03:44:57;48.20;;;17.67;;
68089;SDS011;54880;50.986;6.990;2022-12-16T03:47:26;47.40;;;17.60;;
68089;SDS011;54880;50.986;6.990;2022-12-16T03:49:52;42.00;;;17.30;;
68089;SDS011;54880;50.986;6.990;2022-12-16T03:52:17;46.97;;;18.03;;
68089;SDS011;54880;50.986;6.990;2022-12-16T03:54:43;46.90;;;18.37;;
68089;SDS011;54880;50.986;6.990;2022-12-16T03:57:08;49.27;;;18.20;;
68089;SDS011;54880;50.986;6.990;2022-12-16T03:59:33;43.63;;;18.07;;
68089;SDS011;54880;50.986;6.990;2022-12-16T04:01:58;45.63;;;17.63;;
68089;SDS011;54880;50.986;6.990;2022-12-16T04:04:24;39.33;;;16.83;;
68089;SDS011;54880;50.986;6.990;2022-12-16T04:06:49;49.13;;;18.50;;
68089;SDS011;54880;50.986;6.990;2022-12-16T04:09:34;44.08;;;17.63;;
68089;SDS011;54880;50.986;6.990;2022-12-16T04:12:00;50.10;;;16.90;;
68089;SDS011;54880;50.986;6.990;2022-12-16T04:14:43;45.00;;;17.77;;
68089;SDS011;54880;50.986;6.990;2022-12-16T04:17:27;46.17;;;18.33;;
68089;SDS011;54880;50.986;6.990;2022-12-16T04:20:15;48.63;;;17.03;;
68089;SDS011;54880;50.986;6.990;2022-12-16T04:22:59;47.10;;;18.42;;
68089;SDS011;54880;50.986;6.990;2022-12-16T04:25:43;41.95;;;17.75;;
68089;SDS011;54880;50.986;6.990;2022-12-16T04:28:09;50.50;;;17.47;;
68089;SDS011;54880;50.986;6.990;2022-12-16T04:30:34;45.73;;;17.60;;
68089;SDS011;54880;50.986;6.990;2022-12-16T04:33:01;47.83;;;18.67;;
68089;SDS011;54880;50.986;6.990;2022-12-16T04:35:45;40.92;;;16.80;;
68089;SDS011;54880;50.986;6.990;2022-12-16T04:38:29;47.03;;;17.90;;
68089;SDS011;54880;50.986;6.990;2022-12-16T04:41:13;50.20;;;18.42;;
68089;SDS011;54880;50.986;6.990;2022-12-16T04:43:57;47.97;;;18.15;;
68089;SDS011;54880;50.986;6.990;2022-12-16T04:46:41;48.33;;;18.03;;
68089;SDS011;54880;50.986;6.990;2022-12-16T04:49:25;43.72;;;18.38;;
68089;SDS011;54880;50.986;6.990;2022-12-16T04:52:09;46.35;;;17.40;;
68089;SDS011;54880;50.986;6.990;2022-12-16T04:54:53;42.93;;;17.10;;
68089;SDS011;54880;50.986;6.990;2022-12-16T04:57:37;46.28;;;17.75;;
68089;SDS011;54880;50.986;6.990;2022-12-16T05:00:21;50.03;;;17.25;;
68089;SDS011;54880;50.986;6.990;2022-12-16T05:03:04;39.47;;;16.65;;
68089;SDS011;54880;50.986;6.990;2022-12-16T05:05:48;39.30;;;15.07;;
68089;SDS011;54880;50.986;6.990;2022-12-16T05:08:32;42.30;;;16.88;;
68089;SDS011;54880;50.986;6.990;2022-12-16T05:11:16;46.05;;;16.10;;
68089;SDS011;54880;50.986;6.990;2022-12-16T05:14:00;41.10;;;15.87;;
68089;SDS011;54880;50.986;6.990;2022-12-16T05:16:44;42.78;;;16.83;;
68089;SDS011;54880;50.986;6.990;2022-12-16T05:19:27;41.92;;;15.90;;
68089;SDS011;54880;50.986;6.990;2022-12-16T05:22:11;39.00;;;16.10;;
68089;SDS011;54880;50.986;6.990;2022-12-16T05:24:55;41.72;;;16.38;;
68089;SDS011;54880;50.986;6.990;2022-12-16T05:27:39;42.13;;;16.98;;
68089;SDS011;54880;50.986;6.990;2022-12-16T05:30:23;43.17;;;16.38;;
68089;SDS011;54880;50.986;6.990;2022-12-16T05:33:07;56.33;;;18.27;;
68089;SDS011;54880;50.986;6.990;2022-12-16T05:35:51;45.40;;;18.08;;
68089;SDS011;54880;50.986;6.990;2022-12-16T05:38:35;46.20;;;16.63;;
68089;SDS011;54880;50.986;6.990;2022-12-16T05:41:18;43.03;;;16.20;;
68089;SDS011;54880;50.986;6.990;2022-12-16T05:44:02;46.15;;;16.83;;
68089;SDS011;54880;50.986;6.990;2022-12-16T05:46:46;44.50;;;16.63;;
68089;SDS011;54880;50.986;6.990;2022-12-16T05:49:30;44.77;;;17.00;;
68089;SDS011;54880;50.986;6.990;2022-12-16T05:52:14;44.80;;;17.63;;
68089;SDS011;54880;50.986;6.990;2022-12-16T05:54:58;42.33;;;17.15;;
68089;SDS011;54880;50.986;6.990;2022-12-16T05:57:42;46.95;;;18.13;;
68089;SDS011;54880;50.986;6.990;2022-12-16T06:00:25;44.90;;;16.90;;
68089;SDS011;54880;50.986;6.990;2022-12-16T06:03:09;41.13;;;16.73;;
68089;SDS011;54880;50.986;6.990;2022-12-16T06:05:53;44.42;;;17.35;;
68089;SDS011;54880;50.986;6.990;2022-12-16T06:08:37;46.07;;;16.83;;
68089;SDS011;54880;50.986;6.990;2022-12-16T06:11:20;44.42;;;18.02;;
68089;SDS011;54880;50.986;6.990;2022-12-16T06:14:04;40.10;;;16.90;;
68089;SDS011;54880;50.986;6.990;2022-12-16T06:16:59;39.17;;;17.10;;
68089;SDS011;54880;50.986;6.990;2022-12-16T06:19:43;40.40;;;16.52;;
68089;SDS011;54880;50.986;6.990;2022-12-16T06:22:26;40.47;;;16.58;;
68089;SDS011;54880;50.986;6.990;2022-12-16T06:25:10;42.83;;;17.77;;
68089;SDS011;54880;50.986;6.990;2022-12-16T06:27:54;46.50;;;16.92;;
68089;SDS011;54880;50.986;6.990;2022-12-16T06:30:38;43.00;;;15.98;;
68089;SDS011;54880;50.986;6.990;2022-12-16T06:33:22;49.65;;;17.38;;
68089;SDS011;54880;50.986;6.990;2022-12-16T06:36:06;43.90;;;17.60;;
68089;SDS011;54880;50.986;6.990;2022-12-16T06:38:52;47.25;;;18.27;;
68089;SDS011;54880;50.986;6.990;2022-12-16T06:41:38;48.13;;;17.33;;
68089;SDS011;54880;50.986;6.990;2022-12-16T06:44:21;44.10;;;18.60;;
68089;SDS011;54880;50.986;6.990;2022-12-16T06:47:05;42.10;;;16.85;;
68089;SDS011;54880;50.986;6.990;2022-12-16T06:49:49;41.25;;;16.73;;
68089;SDS011;54880;50.986;6.990;2022-12-16T06:52:33;46.30;;;17.13;;
68089;SDS011;54880;50.986;6.990;2022-12-16T06:55:17;45.67;;;16.80;;
68089;SDS011;54880;50.986;6.990;2022-12-16T06:58:00;42.95;;;16.17;;
68089;SDS011;54880;50.986;6.990;2022-12-16T07:00:44;44.55;;;17.33;;
68089;SDS011;54880;50.986;6.990;2022-12-16T07:03:28;45.03;;;17.17;;
68089;SDS011;54880;50.986;6.990;2022-12-16T07:06:22;47.78;;;17.23;;
68089;SDS011;54880;50.986;6.990;2022-12-16T07:09:06;50.72;;;17.60;;
68089;SDS011;54880;50.986;6.990;2022-12-16T07:11:50;41.40;;;17.13;;
68089;SDS011;54880;50.986;6.990;2022-12-16T07:14:34;44.08;;;16.40;;
68089;SDS011;54880;50.986;6.990;2022-12-16T07:17:18;39.97;;;16.35;;
68089;SDS011;54880;50.986;6.990;2022-12-16T07:20:02;44.78;;;18.13;;
68089;SDS011;54880;50.986;6.990;2022-12-16T07:22:45;46.42;;;15.48;;
68089;SDS011;54880;50.986;6.990;2022-12-16T07:25:29;45.97;;;17.90;;
68089;SDS011;54880;50.986;6.990;2022-12-16T07:28:13;45.60;;;16.45;;
68089;SDS011;54880;50.986;6.990;2022-12-16T07:30:57;44.87;;;17.83;;
68089;SDS011;54880;50.986;6.990;2022-12-16T07:33:41;45.78;;;17.65;;
68089;SDS011;54880;50.986;6.990;2022-12-16T07:36:25;45.60;;;15.60;;
68089;SDS011;54880;50.986;6.990;2022-12-16T07:39:09;43.50;;;17.10;;
68089;SDS011;54880;50.986;6.990;2022-12-16T07:41:53;38.47;;;15.43;;
68089;SDS011;54880;50.986;6.990;2022-12-16T07:44:37;45.63;;;16.92;;
68089;SDS011;54880;50.986;6.990;2022-12-16T07:47:21;49.03;;;18.60;;
68089;SDS011;54880;50.986;6.990;2022-12-16T07:50:05;44.58;;;17.35;;
68089;SDS011;54880;50.986;6.990;2022-12-16T07:52:55;46.08;;;16.92;;
68089;SDS011;54880;50.986;6.990;2022-12-16T07:55:39;47.83;;;19.17;;
68089;SDS011;54880;50.986;6.990;2022-12-16T07:58:23;49.00;;;17.90;;
68089;SDS011;54880;50.986;6.990;2022-12-16T08:01:07;47.05;;;17.80;;
68089;SDS011;54880;50.986;6.990;2022-12-16T08:03:50;53.78;;;16.92;;
68089;SDS011;54880;50.986;6.990;2022-12-16T08:06:34;54.43;;;17.50;;
68089;SDS011;54880;50.986;6.990;2022-12-16T08:09:18;58.92;;;19.45;;
68089;SDS011;54880;50.986;6.990;2022-12-16T08:12:02;58.53;;;19.88;;
68089;SDS011;54880;50.986;6.990;2022-12-16T08:14:46;57.78;;;19.70;;
68089;SDS011;54880;50.986;6.990;2022-12-16T08:17:30;44.60;;;15.63;;
68089;SDS011;54880;50.986;6.990;2022-12-16T08:20:13;55.92;;;18.65;;
68089;SDS011;54880;50.986;6.990;2022-12-16T08:22:57;53.83;;;18.85;;
68089;SDS011;54880;50.986;6.990;2022-12-16T08:25:45;57.93;;;20.60;;
68089;SDS011;54880;50.986;6.990;2022-12-16T08:28:29;55.45;;;18.75;;
68089;SDS011;54880;50.986;6.990;2022-12-16T08:31:13;52.80;;;18.27;;
68089;SDS011;54880;50.986;6.990;2022-12-16T08:33:57;59.00;;;19.80;;
68089;SDS011;54880;50.986;6.990;2022-12-16T08:36:41;59.35;;;19.67;;
68089;SDS011;54880;50.986;6.990;2022-12-16T08:39:25;67.20;;;19.75;;
68089;SDS011;54880;50.986;6.990;2022-12-16T08:42:08;54.03;;;19.38;;
68089;SDS011;54880;50.986;6.990;2022-12-16T08:44:52;54.85;;;18.92;;
68089;SDS011;54880;50.986;6.990;2022-12-16T08:47:36;58.88;;;20.83;;
68089;SDS011;54880;50.986;6.990;2022-12-16T08:50:20;53.90;;;19.65;;
68089;SDS011;54880;50.986;6.990;2022-12-16T08:53:04;62.87;;;20.87;;
68089;SDS011;54880;50.986;6.990;2022-12-16T08:55:48;50.72;;;18.10;;
68089;SDS011;54880;50.986;6.990;2022-12-16T08:58:31;61.05;;;20.05;;
68089;SDS011;54880;50.986;6.990;2022-12-16T09:01:15;62.27;;;20.43;;
68089;SDS011;54880;50.986;6.990;2022-12-16T09:03:59;54.63;;;18.85;;
68089;SDS011;54880;50.986;6.990;2022-12-16T09:06:43;60.70;;;20.90;;
68089;SDS011;54880;50.986;6.990;2022-12-16T09:09:27;54.75;;;18.70;;
68089;SDS011;54880;50.986;6.990;2022-12-16T09:12:11;56.33;;;18.50;;
68089;SDS011;54880;50.986;6.990;2022-12-16T09:14:54;64.53;;;20.40;;
68089;SDS011;54880;50.986;6.990;2022-12-16T09:17:41;55.58;;;19.60;;
68089;SDS011;54880;50.986;6.990;2022-12-16T09:20:25;59.63;;;19.47;;
68089;SDS011;54880;50.986;6.990;2022-12-16T09:23:09;60.63;;;19.38;;
68089;SDS011;54880;50.986;6.990;2022-12-16T09:25:55;55.95;;;19.42;;
68089;SDS011;54880;50.986;6.990;2022-12-16T09:28:39;60.60;;;19.97;;
68089;SDS011;54880;50.986;6.990;2022-12-16T09:31:37;49.08;;;18.30;;
68089;SDS011;54880;50.986;6.990;2022-12-16T09:34:21;55.78;;;19.40;;
68089;SDS011;54880;50.986;6.990;2022-12-16T09:37:04;55.63;;;19.75;;
68089;SDS011;54880;50.986;6.990;2022-12-16T09:39:48;48.15;;;18.33;;
68089;SDS011;54880;50.986;6.990;2022-12-16T09:42:37;57.47;;;20.63;;
68089;SDS011;54880;50.986;6.990;2022-12-16T09:45:39;54.72;;;19.08;;
68089;SDS011;54880;50.986;6.990;2022-12-16T09:49:10;54.47;;;20.03;;
68089;SDS011;54880;50.986;6.990;2022-12-16T09:51:28;52.55;;;19.88;;
68089;SDS011;54880;50.986;6.990;2022-12-16T09:54:14;49.90;;;19.60;;
68089;SDS011;54880;50.986;6.990;2022-12-16T09:56:58;59.73;;;20.87;;
68089;SDS011;54880;50.986;6.990;2022-12-16T09:59:44;54.33;;;18.45;;
68089;SDS011;54880;50.986;6.990;2022-12-16T10:02:31;51.85;;;18.08;;
68089;SDS011;54880;50.986;6.990;2022-12-16T10:05:17;47.92;;;18.92;;
68089;SDS011;54880;50.986;6.990;2022-12-16T10:10:53;49.75;;;20.48;;
68089;SDS011;54880;50.986;6.990;2022-12-16T10:13:47;49.53;;;20.58;;
68089;SDS011;54880;50.986;6.990;2022-12-16T10:19:45;45.42;;;18.52;;
68089;SDS011;54880;50.986;6.990;2022-12-16T10:25:59;52.40;;;20.30;;
68089;SDS011;54880;50.986;6.990;2022-12-16T10:28:44;51.00;;;18.48;;
68089;SDS011;54880;50.986;6.990;2022-12-16T10:31:29;52.05;;;19.92;;
68089;SDS011;54880;50.986;6.990;2022-12-16T10:34:17;52.85;;;21.05;;
68089;SDS011;54880;50.986;6.990;2022-12-16T10:37:02;60.72;;;22.20;;
68089;SDS011;54880;50.986;6.990;2022-12-16T10:39:50;53.22;;;21.08;;
68089;SDS011;54880;50.986;6.990;2022-12-16T10:42:35;53.03;;;20.60;;
68089;SDS011;54880;50.986;6.990;2022-12-16T10:45:36;53.93;;;20.93;;
68089;SDS011;54880;50.986;6.990;2022-12-16T10:48:27;57.63;;;21.70;;
68089;SDS011;54880;50.986;6.990;2022-12-16T10:51:19;54.50;;;18.67;;
68089;SDS011;54880;50.986;6.990;2022-12-16T11:00:18;51.63;;;19.92;;
68089;SDS011;54880;50.986;6.990;2022-12-16T11:03:24;60.47;;;22.25;;
68089;SDS011;54880;50.986;6.990;2022-12-16T11:06:09;62.33;;;23.83;;
68089;SDS011;54880;50.986;6.990;2022-12-16T11:08:53;62.17;;;23.42;;
68089;SDS011;54880;50.986;6.990;2022-12-16T11:11:37;63.70;;;23.50;;
68089;SDS011;54880;50.986;6.990;2022-12-16T11:14:28;62.77;;;22.90;;
68089;SDS011;54880;50.986;6.990;2022-12-16T11:23:08;60.47;;;22.98;;
68089;SDS011;54880;50.986;6.990;2022-12-16T11:29:08;68.97;;;25.95;;
68089;SDS011;54880;50.986;6.990;2022-12-16T11:34:53;70.20;;;25.33;;
68089;SDS011;54880;50.986;6.990;2022-12-16T11:37:38;65.95;;;24.90;;
68089;SDS011;54880;50.986;6.990;2022-12-16T11:40:23;70.82;;;25.55;;
68089;SDS011;54880;50.986;6.990;2022-12-16T11:43:07;70.60;;;27.13;;
68089;SDS011;54880;50.986;6.990;2022-12-16T11:45:52;76.20;;;26.42;;
68089;SDS011;54880;50.986;6.990;2022-12-16T11:48:49;61.75;;;24.00;;
68089;SDS011;54880;50.986;6.990;2022-12-16T11:51:35;66.75;;;25.23;;
68089;SDS011;54880;50.986;6.990;2022-12-16T11:54:23;67.13;;;25.75;;
68089;SDS011;54880;50.986;6.990;2022-12-16T12:00:14;69.13;;;24.95;;
68089;SDS011;54880;50.986;6.990;2022-12-16T12:03:06;68.53;;;27.00;;
68089;SDS011;54880;50.986;6.990;2022-12-16T12:09:01;73.15;;;25.30;;
68089;SDS011;54880;50.986;6.990;2022-12-16T12:11:49;63.35;;;23.45;;
68089;SDS011;54880;50.986;6.990;2022-12-16T12:14:37;70.75;;;25.73;;
68089;SDS011;54880;50.986;6.990;2022-12-16T12:18:09;72.07;;;28.48;;
68089;SDS011;54880;50.986;6.990;2022-12-16T12:20:37;71.07;;;27.92;;
68089;SDS011;54880;50.986;6.990;2022-12-16T12:23:30;65.27;;;27.20;;
68089;SDS011;54880;50.986;6.990;2022-12-16T12:26:18;60.08;;;25.20;;
68089;SDS011;54880;50.986;6.990;2022-12-16T12:29:17;67.60;;;24.25;;
68089;SDS011;54880;50.986;6.990;2022-12-16T12:32:08;68.28;;;24.70;;
68089;SDS011;54880;50.986;6.990;2022-12-16T12:35:20;72.73;;;25.70;;
68089;SDS011;54880;50.986;6.990;2022-12-16T12:38:20;70.90;;;25.45;;
68089;SDS011;54880;50.986;6.990;2022-12-16T12:46:50;70.90;;;26.35;;
68089;SDS011;54880;50.986;6.990;2022-12-16T12:58:03;74.15;;;25.15;;
68089;SDS011;54880;50.986;6.990;2022-12-16T13:00:49;70.35;;;25.75;;
68089;SDS011;54880;50.986;6.990;2022-12-16T13:03:54;69.38;;;27.60;;
68089;SDS011;54880;50.986;6.990;2022-12-16T13:06:40;68.13;;;27.47;;
68089;SDS011;54880;50.986;6.990;2022-12-16T13:09:34;61.60;;;25.55;;
68089;SDS011;54880;50.986;6.990;2022-12-16T13:12:19;65.15;;;27.08;;
68089;SDS011;54880;50.986;6.990;2022-12-16T13:15:04;72.10;;;29.65;;
68089;SDS011;54880;50.986;6.990;2022-12-16T13:20:42;64.18;;;23.45;;
68089;SDS011;54880;50.986;6.990;2022-12-16T13:26:10;67.32;;;23.65;;
68089;SDS011;54880;50.986;6.990;2022-12-16T13:41:00;61.73;;;24.37;;
68089;SDS011;54880;50.986;6.990;2022-12-16T13:43:47;55.25;;;23.33;;
68089;SDS011;54880;50.986;6.990;2022-12-16T13:47:15;60.97;;;24.27;;
68089;SDS011;54880;50.986;6.990;2022-12-16T13:49:43;58.78;;;23.40;;
68089;SDS011;54880;50.986;6.990;2022-12-16T13:55:30;57.33;;;22.65;;
68089;SDS011;54880;50.986;6.990;2022-12-16T13:58:28;57.75;;;23.95;;
68089;SDS011;54880;50.986;6.990;2022-12-16T14:01:15;67.43;;;25.90;;
68089;SDS011;54880;50.986;6.990;2022-12-16T14:04:00;56.30;;;22.90;;
68089;SDS011;54880;50.986;6.990;2022-12-16T14:06:44;65.97;;;23.63;;
68089;SDS011;54880;50.986;6.990;2022-12-16T14:09:33;57.63;;;22.13;;
68089;SDS011;54880;50.986;6.990;2022-12-16T14:15:25;68.45;;;25.45;;
68089;SDS011;54880;50.986;6.990;2022-12-16T14:18:13;68.18;;;25.42;;
68089;SDS011;54880;50.986;6.990;2022-12-16T14:21:00;68.38;;;23.33;;
68089;SDS011;54880;50.986;6.990;2022-12-16T14:23:50;59.77;;;24.37;;
68089;SDS011;54880;50.986;6.990;2022-12-16T14:26:35;59.97;;;22.65;;
68089;SDS011;54880;50.986;6.990;2022-12-16T14:29:21;65.30;;;22.92;;
68089;SDS011;54880;50.986;6.990;2022-12-16T14:35:22;116.53;;;38.03;;
68089;SDS011;54880;50.986;6.990;2022-12-16T14:38:11;74.60;;;25.75;;
68089;SDS011;54880;50.986;6.990;2022-12-16T14:40:56;68.03;;;24.30;;
68089;SDS011;54880;50.986;6.990;2022-12-16T14:43:41;65.38;;;23.88;;
68089;SDS011;54880;50.986;6.990;2022-12-16T14:49:52;72.38;;;23.70;;
68089;SDS011;54880;50.986;6.990;2022-12-16T14:52:24;69.40;;;24.65;;
68089;SDS011;54880;50.986;6.990;2022-12-16T14:55:10;63.17;;;24.20;;
68089;SDS011;54880;50.986;6.990;2022-12-16T15:04:02;59.15;;;20.77;;
68089;SDS011;54880;50.986;6.990;2022-12-16T15:06:48;68.25;;;26.17;;
68089;SDS011;54880;50.986;6.990;2022-12-16T15:09:34;68.30;;;24.90;;
68089;SDS011;54880;50.986;6.990;2022-12-16T15:12:21;61.10;;;20.92;;
68089;SDS011;54880;50.986;6.990;2022-12-16T15:15:08;64.78;;;23.05;;
68089;SDS011;54880;50.986;6.990;2022-12-16T15:17:55;83.53;;;30.33;;
68089;SDS011;54880;50.986;6.990;2022-12-16T15:20:47;69.93;;;25.80;;
68089;SDS011;54880;50.986;6.990;2022-12-16T15:23:32;73.05;;;24.17;;
68089;SDS011;54880;50.986;6.990;2022-12-16T15:26:20;75.03;;;27.55;;
68089;SDS011;54880;50.986;6.990;2022-12-16T15:29:22;79.50;;;23.50;;
68089;SDS011;54880;50.986;6.990;2022-12-16T15:32:27;57.95;;;21.45;;
68089;SDS011;54880;50.986;6.990;2022-12-16T15:41:01;57.15;;;22.27;;
68089;SDS011;54880;50.986;6.990;2022-12-16T15:43:45;72.25;;;24.92;;
68089;SDS011;54880;50.986;6.990;2022-12-16T15:46:29;77.15;;;26.17;;
68089;SDS011;54880;50.986;6.990;2022-12-16T15:55:22;71.38;;;20.52;;
68089;SDS011;54880;50.986;6.990;2022-12-16T15:58:23;62.22;;;19.83;;
68089;SDS011;54880;50.986;6.990;2022-12-16T16:01:08;69.13;;;20.43;;
68089;SDS011;54880;50.986;6.990;2022-12-16T16:03:53;53.00;;;18.75;;
68089;SDS011;54880;50.986;6.990;2022-12-16T16:06:38;52.78;;;18.10;;
68089;SDS011;54880;50.986;6.990;2022-12-16T16:09:44;74.70;;;17.00;;
68089;SDS011;54880;50.986;6.990;2022-12-16T16:12:28;55.40;;;17.27;;
68089;SDS011;54880;50.986;6.990;2022-12-16T16:15:13;73.63;;;17.67;;
68089;SDS011;54880;50.986;6.990;2022-12-16T16:17:58;66.03;;;16.15;;
68089;SDS011;54880;50.986;6.990;2022-12-16T16:20:42;65.00;;;18.25;;
68089;SDS011;54880;50.986;6.990;2022-12-16T16:23:26;59.67;;;17.13;;
68089;SDS011;54880;50.986;6.990;2022-12-16T16:26:10;62.47;;;17.67;;
68089;SDS011;54880;50.986;6.990;2022-12-16T16:28:56;58.15;;;16.33;;
68089;SDS011;54880;50.986;6.990;2022-12-16T16:31:39;59.93;;;16.63;;
68089;SDS011;54880;50.986;6.990;2022-12-16T16:34:23;70.00;;;19.55;;
68089;SDS011;54880;50.986;6.990;2022-12-16T16:37:09;71.13;;;20.15;;
68089;SDS011;54880;50.986;6.990;2022-12-16T16:39:54;74.07;;;18.10;;
68089;SDS011;54880;50.986;6.990;2022-12-16T16:42:38;55.28;;;15.75;;
68089;SDS011;54880;50.986;6.990;2022-12-16T16:45:22;65.78;;;18.00;;
68089;SDS011;54880;50.986;6.990;2022-12-16T16:48:09;67.07;;;18.42;;
68089;SDS011;54880;50.986;6.990;2022-12-16T16:50:54;64.03;;;16.63;;
68089;SDS011;54880;50.986;6.990;2022-12-16T16:53:38;81.75;;;25.65;;
68089;SDS011;54880;50.986;6.990;2022-12-16T16:56:22;58.65;;;17.80;;
68089;SDS011;54880;50.986;6.990;2022-12-16T16:59:07;58.88;;;18.55;;
68089;SDS011;54880;50.986;6.990;2022-12-16T17:01:52;55.30;;;16.97;;
68089;SDS011;54880;50.986;6.990;2022-12-16T17:04:35;57.65;;;16.83;;
68089;SDS011;54880;50.986;6.990;2022-12-16T17:07:19;44.40;;;14.75;;
68089;SDS011;54880;50.986;6.990;2022-12-16T17:10:03;56.45;;;15.43;;
68089;SDS011;54880;50.986;6.990;2022-12-16T17:13:04;58.75;;;16.63;;
68089;SDS011;54880;50.986;6.990;2022-12-16T17:16:04;61.72;;;16.73;;
68089;SDS011;54880;50.986;6.990;2022-12-16T17:18:48;65.55;;;17.05;;
68089;SDS011;54880;50.986;6.990;2022-12-16T17:21:32;57.33;;;15.10;;
68089;SDS011;54880;50.986;6.990;2022-12-16T17:24:16;70.88;;;17.27;;
68089;SDS011;54880;50.986;6.990;2022-12-16T17:27:12;53.40;;;16.80;;
68089;SDS011;54880;50.986;6.990;2022-12-16T17:29:56;49.88;;;14.77;;
68089;SDS011;54880;50.986;6.990;2022-12-16T17:32:39;55.83;;;15.88;;
68089;SDS011;54880;50.986;6.990;2022-12-16T17:35:23;58.95;;;15.90;;
68089;SDS011;54880;50.986;6.990;2022-12-16T17:38:07;51.45;;;15.27;;
68089;SDS011;54880;50.986;6.990;2022-12-16T17:40:53;55.43;;;15.87;;
68089;SDS011;54880;50.986;6.990;2022-12-16T17:43:37;58.72;;;18.33;;
68089;SDS011;54880;50.986;6.990;2022-12-16T17:46:20;57.67;;;17.52;;
68089;SDS011;54880;50.986;6.990;2022-12-16T17:49:04;55.95;;;17.67;;